Time;durP1;ratioP1;P1;durP2;ratioP2;P2;SDS_P1;SDS_P2;PMS_P1;PMS_P2;Temp;Humidity;BMP_temperature;BMP_pressure;BME280_temperature;BME280_humidity;BME280_pressure;Samples;Min_cycle;Max_cycle;Signal;HPM_P1;HPM_P2
2022/06/10 00:00:21;;;;;;;10.95;2.63;;;;;;;;;;5010378;28;100138;-73
2022/06/10 00:02:48;;;;;;;11.77;2.80;;;;;;;;;;5008769;28;100358;-73
2022/06/10 00:05:16;;;;;;;12.45;3.08;;;;;;;;;;5025528;28;98586;-72
2022/06/10 00:07:42;;;;;;;8.25;2.78;;;;;;;;;;5029973;28;100129;-73
2022/06/10 00:10:10;;;;;;;8.05;2.47;;;;;;;;;;5029654;28;99499;-73
2022/06/10 00:12:37;;;;;;;17.55;3.30;;;;;;;;;;5033545;28;99427;-72
2022/06/10 00:15:04;;;;;;;11.10;3.00;;;;;;;;;;5029014;27;99859;-73
2022/06/10 00:17:30;;;;;;;12.95;3.20;;;;;;;;;;5028954;27;100428;-73
2022/06/10 00:19:57;;;;;;;7.45;2.50;;;;;;;;;;5030069;28;100786;-72
2022/06/10 00:22:24;;;;;;;14.10;2.83;;;;;;;;;;5013087;27;101379;-72
2022/06/10 00:24:51;;;;;;;12.13;3.30;;;;;;;;;;5008856;28;98918;-72
2022/06/10 00:27:18;;;;;;;15.93;4.10;;;;;;;;;;5010031;28;99740;-72
2022/06/10 00:29:45;;;;;;;12.32;3.20;;;;;;;;;;5008895;28;99089;-72
2022/06/10 00:32:11;;;;;;;10.63;3.28;;;;;;;;;;5007991;28;98591;-72
2022/06/10 00:34:37;;;;;;;6.32;2.40;;;;;;;;;;5010679;28;99958;-72
2022/06/10 00:37:05;;;;;;;11.88;3.10;;;;;;;;;;4988118;28;98890;-72
2022/06/10 00:39:33;;;;;;;11.52;2.80;;;;;;;;;;5007164;28;99961;-72
2022/06/10 00:42:00;;;;;;;9.73;2.67;;;;;;;;;;4988227;28;100435;-72
2022/06/10 00:44:40;;;;;;;17.50;4.15;;;;;;;;;;4988852;28;99134;-72
2022/06/10 00:47:22;;;;;;;10.65;3.13;;;;;;;;;;4989695;28;100038;-72
2022/06/10 00:49:58;;;;;;;9.02;3.05;;;;;;;;;;4988507;28;100424;-72
2022/06/10 00:52:31;;;;;;;15.25;3.47;;;;;;;;;;4988552;28;98534;-72
2022/06/10 00:54:58;;;;;;;16.17;4.03;;;;;;;;;;4995484;28;100133;-72
2022/06/10 00:57:30;;;;;;;8.93;2.90;;;;;;;;;;5012447;28;99686;-72
2022/06/10 01:00:16;;;;;;;16.38;3.92;;;;;;;;;;5008857;28;99069;-72
2022/06/10 01:02:43;;;;;;;11.77;3.38;;;;;;;;;;5008620;28;100231;-72
2022/06/10 01:05:21;;;;;;;12.65;3.38;;;;;;;;;;5009327;28;98562;-72
2022/06/10 01:08:01;;;;;;;11.40;3.47;;;;;;;;;;5008218;28;100160;-72
2022/06/10 01:10:29;;;;;;;13.07;3.25;;;;;;;;;;5008906;28;100686;-73
2022/06/10 01:13:14;;;;;;;11.75;3.47;;;;;;;;;;5009103;28;99377;-73
2022/06/10 01:15:59;;;;;;;18.52;3.83;;;;;;;;;;5008899;28;99027;-73
2022/06/10 01:18:37;;;;;;;10.20;3.65;;;;;;;;;;5008738;28;99322;-72
2022/06/10 01:21:06;;;;;;;9.63;3.50;;;;;;;;;;5011812;28;98629;-72
2022/06/10 01:23:51;;;;;;;13.75;3.42;;;;;;;;;;5008362;28;100127;-72
2022/06/10 01:26:32;;;;;;;10.82;3.15;;;;;;;;;;5009596;28;97788;-72
2022/06/10 01:29:21;;;;;;;13.98;4.13;;;;;;;;;;5013734;28;99960;-72
2022/06/10 01:31:55;;;;;;;24.42;4.20;;;;;;;;;;5028446;28;100138;-73
2022/06/10 01:34:26;;;;;;;9.93;3.70;;;;;;;;;;5027747;28;99327;-72
2022/06/10 01:37:14;;;;;;;12.70;3.90;;;;;;;;;;5028840;28;100445;-72
2022/06/10 01:39:48;;;;;;;13.90;4.20;;;;;;;;;;5028460;28;100574;-72
2022/06/10 01:42:27;;;;;;;15.23;4.38;;;;;;;;;;5028698;27;98502;-72
2022/06/10 01:45:05;;;;;;;15.50;4.18;;;;;;;;;;5034828;27;99894;-72
2022/06/10 01:47:50;;;;;;;14.07;3.90;;;;;;;;;;5031360;28;99215;-72
2022/06/10 01:50:25;;;;;;;12.75;3.95;;;;;;;;;;5032145;28;99532;-72
2022/06/10 01:52:55;;;;;;;15.40;4.80;;;;;;;;;;5032513;28;101090;-72
2022/06/10 01:55:41;;;;;;;10.73;4.10;;;;;;;;;;5031324;28;99039;-72
2022/06/10 01:58:10;;;;;;;11.20;3.83;;;;;;;;;;5032664;27;100606;-72
2022/06/10 02:00:38;;;;;;;12.02;4.70;;;;;;;;;;5031316;28;100882;-73
2022/06/10 02:03:10;;;;;;;14.68;4.10;;;;;;;;;;5030414;28;98886;-72
2022/06/10 02:05:40;;;;;;;16.02;4.63;;;;;;;;;;5034890;28;99945;-72
2022/06/10 02:08:14;;;;;;;21.13;3.83;;;;;;;;;;5032076;28;98423;-72
2022/06/10 02:10:51;;;;;;;21.20;4.57;;;;;;;;;;5030898;27;99357;-72
2022/06/10 02:13:20;;;;;;;19.58;4.80;;;;;;;;;;5031475;27;99430;-72
2022/06/10 02:15:55;;;;;;;21.10;4.05;;;;;;;;;;5030934;28;98780;-73
2022/06/10 02:18:28;;;;;;;21.27;4.75;;;;;;;;;;5029617;28;99827;-72
2022/06/10 02:21:01;;;;;;;11.80;3.50;;;;;;;;;;5012406;28;100654;-73
2022/06/10 02:23:31;;;;;;;17.48;4.55;;;;;;;;;;5010725;28;98605;-72
2022/06/10 02:25:58;;;;;;;16.90;3.65;;;;;;;;;;5021791;28;99941;-72
2022/06/10 02:28:27;;;;;;;11.93;3.60;;;;;;;;;;5034683;27;99210;-72
2022/06/10 02:31:05;;;;;;;14.15;3.90;;;;;;;;;;5031017;27;99700;-72
2022/06/10 02:33:31;;;;;;;10.57;3.38;;;;;;;;;;5031156;27;100310;-72
2022/06/10 02:36:04;;;;;;;15.07;3.42;;;;;;;;;;5021948;27;99780;-72
2022/06/10 02:38:30;;;;;;;;;;;;;;;;;;4991246;28;99179;-72
2022/06/10 02:41:00;;;;;;;17.40;3.92;;;;;;;;;;4991351;28;130769;-72
2022/06/10 02:43:30;;;;;;;13.68;3.65;;;;;;;;;;4992200;28;97884;-72
2022/06/10 02:46:05;;;;;;;20.35;4.00;;;;;;;;;;4991114;28;99004;-72
2022/06/10 02:48:51;;;;;;;14.43;3.70;;;;;;;;;;4992791;28;99491;-72
2022/06/10 02:51:19;;;;;;;15.32;3.88;;;;;;;;;;4993648;28;99965;-72
2022/06/10 02:53:45;;;;;;;20.17;3.72;;;;;;;;;;4989689;28;99397;-72
2022/06/10 02:56:16;;;;;;;15.35;3.88;;;;;;;;;;4991492;28;99393;-72
2022/06/10 03:01:28;;;;;;;13.27;3.70;;;;;;;;;;4990552;28;100191;-72
2022/06/10 03:04:03;;;;;;;15.77;3.88;;;;;;;;;;4990769;28;98540;-72
2022/06/10 03:06:50;;;;;;;16.27;4.40;;;;;;;;;;4990482;28;100668;-72
2022/06/10 03:09:22;;;;;;;13.15;3.22;;;;;;;;;;4991190;28;99765;-72
2022/06/10 03:11:55;;;;;;;11.57;3.13;;;;;;;;;;4990815;28;98981;-72
2022/06/10 03:14:29;;;;;;;14.88;3.92;;;;;;;;;;4993232;28;100147;-73
2022/06/10 03:17:09;;;;;;;13.02;3.47;;;;;;;;;;4990613;28;99367;-72
2022/06/10 03:19:54;;;;;;;15.02;3.65;;;;;;;;;;4989904;28;100873;-72
2022/06/10 03:22:36;;;;;;;13.82;3.50;;;;;;;;;;4990330;28;99588;-72
2022/06/10 03:25:05;;;;;;;11.65;3.45;;;;;;;;;;4990533;28;98523;-73
2022/06/10 03:27:44;;;;;;;11.38;3.13;;;;;;;;;;4989843;28;100307;-72
2022/06/10 03:30:17;;;;;;;11.00;3.08;;;;;;;;;;4990395;28;99508;-72
2022/06/10 03:32:59;;;;;;;13.43;3.38;;;;;;;;;;4990422;28;98544;-72
2022/06/10 03:35:38;;;;;;;9.57;3.05;;;;;;;;;;4990517;28;99120;-73
2022/06/10 03:38:05;;;;;;;18.20;3.17;;;;;;;;;;4993651;28;100334;-74
2022/06/10 03:40:33;;;;;;;15.82;3.88;;;;;;;;;;4989890;28;100205;-72
2022/06/10 03:43:02;;;;;;;15.00;2.80;;;;;;;;;;4989572;28;100848;-72
2022/06/10 03:45:32;;;;;;;13.52;3.67;;;;;;;;;;4990430;28;98479;-72
2022/06/10 03:47:59;;;;;;;17.77;3.15;;;;;;;;;;4989909;28;100816;-72
2022/06/10 03:50:28;;;;;;;6.07;2.53;;;;;;;;;;4990063;28;100299;-73
2022/06/10 03:52:54;;;;;;;11.38;3.15;;;;;;;;;;4990134;28;98565;-72
2022/06/10 03:55:21;;;;;;;9.73;3.03;;;;;;;;;;4989701;28;100027;-72
2022/06/10 03:57:47;;;;;;;12.93;3.30;;;;;;;;;;4989706;28;100394;-73
2022/06/10 04:00:16;;;;;;;15.45;3.70;;;;;;;;;;4993596;28;97878;-72
2022/06/10 04:02:43;;;;;;;17.10;3.67;;;;;;;;;;4988962;28;100247;-72
2022/06/10 04:05:10;;;;;;;13.77;3.78;;;;;;;;;;4990060;28;98547;-72
2022/06/10 04:07:37;;;;;;;14.38;3.20;;;;;;;;;;4989797;28;100242;-72
2022/06/10 04:10:04;;;;;;;11.35;3.92;;;;;;;;;;4989108;28;100238;-73
2022/06/10 04:12:30;;;;;;;13.90;3.50;;;;;;;;;;4989698;28;98578;-72
2022/06/10 04:14:57;;;;;;;16.63;3.47;;;;;;;;;;4990314;28;100816;-72
2022/06/10 04:17:24;;;;;;;13.93;4.22;;;;;;;;;;4988948;28;100034;-72
2022/06/10 04:19:51;;;;;;;11.85;3.20;;;;;;;;;;4993007;28;98575;-72
2022/06/10 04:22:17;;;;;;;11.93;2.95;;;;;;;;;;4989710;28;100291;-72
2022/06/10 04:24:44;;;;;;;13.20;3.40;;;;;;;;;;4989201;28;98298;-72
2022/06/10 04:27:10;;;;;;;11.02;2.90;;;;;;;;;;4989847;28;99308;-72
2022/06/10 04:29:36;;;;;;;11.80;3.08;;;;;;;;;;4988374;28;99625;-72
2022/06/10 04:32:03;;;;;;;16.15;3.85;;;;;;;;;;4989424;28;99235;-73
2022/06/10 04:34:30;;;;;;;14.38;3.20;;;;;;;;;;4989754;28;100724;-72
2022/06/10 04:36:56;;;;;;;13.00;2.90;;;;;;;;;;4991879;28;100268;-73
2022/06/10 04:39:22;;;;;;;13.93;3.75;;;;;;;;;;4988892;28;98594;-72
2022/06/10 04:41:49;;;;;;;12.55;3.00;;;;;;;;;;4991954;28;99988;-73
2022/06/10 04:44:15;;;;;;;19.98;3.92;;;;;;;;;;4988940;28;98561;-72
2022/06/10 04:46:44;;;;;;;17.70;3.85;;;;;;;;;;4989347;28;99931;-72
2022/06/10 04:49:10;;;;;;;15.05;3.30;;;;;;;;;;4991109;28;98465;-72
2022/06/10 04:51:37;;;;;;;12.82;3.90;;;;;;;;;;4990749;28;99386;-73
2022/06/10 04:54:04;;;;;;;14.60;3.15;;;;;;;;;;4989627;28;99890;-73
2022/06/10 04:56:31;;;;;;;8.95;3.05;;;;;;;;;;4988443;28;100937;-73
2022/06/10 04:58:57;;;;;;;13.93;3.00;;;;;;;;;;4988845;28;98509;-73
2022/06/10 05:01:23;;;;;;;13.13;3.53;;;;;;;;;;4989509;28;100009;-72
2022/06/10 05:03:51;;;;;;;18.50;4.13;;;;;;;;;;4992074;28;99580;-72
2022/06/10 05:06:17;;;;;;;12.88;2.92;;;;;;;;;;4988841;28;99458;-73
2022/06/10 05:08:44;;;;;;;10.32;3.13;;;;;;;;;;4988612;28;100189;-72
2022/06/10 05:11:10;;;;;;;15.88;3.28;;;;;;;;;;4989900;28;98702;-72
2022/06/10 05:13:37;;;;;;;19.42;4.97;;;;;;;;;;4988733;28;100079;-72
2022/06/10 05:16:04;;;;;;;11.95;3.00;;;;;;;;;;4989182;28;99454;-72
2022/06/10 05:18:31;;;;;;;14.25;3.08;;;;;;;;;;4992017;28;98597;-72
2022/06/10 05:20:57;;;;;;;11.75;3.20;;;;;;;;;;4991498;28;100513;-72
2022/06/10 05:23:24;;;;;;;9.48;2.60;;;;;;;;;;4992176;28;99538;-72
2022/06/10 05:25:51;;;;;;;14.52;3.05;;;;;;;;;;4995709;28;98648;-73
2022/06/10 05:28:18;;;;;;;14.85;2.83;;;;;;;;;;4993143;28;99629;-73
2022/06/10 05:30:45;;;;;;;14.93;3.00;;;;;;;;;;4992706;28;98832;-73
2022/06/10 05:33:11;;;;;;;12.00;3.50;;;;;;;;;;4992140;28;99878;-73
2022/06/10 05:35:38;;;;;;;11.77;2.55;;;;;;;;;;4991592;28;99296;-73
2022/06/10 05:38:05;;;;;;;15.65;3.60;;;;;;;;;;4993195;28;97826;-73
2022/06/10 05:40:33;;;;;;;10.93;2.95;;;;;;;;;;4991425;28;98979;-73
2022/06/10 05:42:59;;;;;;;11.18;3.30;;;;;;;;;;4992647;28;99241;-73
2022/06/10 05:45:26;;;;;;;12.40;3.28;;;;;;;;;;4991915;28;100197;-73
2022/06/10 05:47:55;;;;;;;13.70;3.10;;;;;;;;;;5009641;28;99730;-73
2022/06/10 05:50:24;;;;;;;22.63;3.55;;;;;;;;;;4992504;28;99218;-73
2022/06/10 05:52:50;;;;;;;5.78;2.40;;;;;;;;;;4992215;28;100028;-73
2022/06/10 05:55:17;;;;;;;10.05;3.17;;;;;;;;;;4991127;28;99236;-73
2022/06/10 05:57:43;;;;;;;16.85;3.40;;;;;;;;;;4992092;28;98584;-73
2022/06/10 06:00:13;;;;;;;13.82;3.22;;;;;;;;;;4992380;28;99986;-73
2022/06/10 06:02:41;;;;;;;19.02;4.13;;;;;;;;;;4991450;28;98468;-73
2022/06/10 06:05:10;;;;;;;23.08;4.43;;;;;;;;;;4992550;28;98925;-73
2022/06/10 06:07:38;;;;;;;23.73;3.40;;;;;;;;;;4994802;28;99980;-73
2022/06/10 06:10:05;;;;;;;11.73;3.20;;;;;;;;;;4990866;28;99354;-73
2022/06/10 06:12:32;;;;;;;13.20;3.15;;;;;;;;;;4992019;28;101364;-73
2022/06/10 06:14:58;;;;;;;11.77;2.63;;;;;;;;;;4991116;28;100020;-72
2022/06/10 06:17:24;;;;;;;15.63;3.22;;;;;;;;;;4992332;28;98830;-72
2022/06/10 06:19:51;;;;;;;11.60;2.95;;;;;;;;;;4991582;28;99246;-72
2022/06/10 06:22:17;;;;;;;15.70;3.13;;;;;;;;;;4991105;28;99377;-72
2022/06/10 06:24:45;;;;;;;9.57;3.78;;;;;;;;;;4991448;28;98833;-72
2022/06/10 06:27:14;;;;;;;11.80;3.70;;;;;;;;;;4992416;28;99959;-72
2022/06/10 06:29:41;;;;;;;12.77;3.20;;;;;;;;;;4992330;28;100377;-72
2022/06/10 06:32:07;;;;;;;18.50;2.90;;;;;;;;;;4997550;28;99990;-73
2022/06/10 06:34:34;;;;;;;13.48;3.05;;;;;;;;;;5000707;27;101330;-73
2022/06/10 06:37:01;;;;;;;9.50;2.88;;;;;;;;;;4982689;28;100519;-73
2022/06/10 06:39:27;;;;;;;13.45;2.83;;;;;;;;;;4995793;28;101532;-73
2022/06/10 06:41:54;;;;;;;9.43;2.97;;;;;;;;;;4985252;28;100302;-73
2022/06/10 06:44:30;;;;;;;7.57;3.00;;;;;;;;;;4999432;27;99446;-73
2022/06/10 06:46:57;;;;;;;12.07;2.83;;;;;;;;;;5004568;27;100131;-73
2022/06/10 06:49:28;;;;;;;7.22;3.10;;;;;;;;;;4990668;28;99407;-74
2022/06/10 06:51:55;;;;;;;10.30;2.63;;;;;;;;;;4997655;28;98275;-73
2022/06/10 06:54:21;;;;;;;13.20;3.13;;;;;;;;;;4991040;28;100057;-76
2022/06/10 06:56:48;;;;;;;11.80;3.17;;;;;;;;;;4991142;28;98556;-81
2022/06/10 06:59:15;;;;;;;9.05;2.55;;;;;;;;;;4989577;28;100134;-77
2022/06/10 07:01:41;;;;;;;8.82;2.50;;;;;;;;;;4990186;28;100521;-74
2022/06/10 07:04:08;;;;;;;12.25;3.72;;;;;;;;;;4991271;28;98500;-74
2022/06/10 07:06:39;;;;;;;12.17;2.93;;;;;;;;;;4991423;28;98936;-74
2022/06/10 07:09:07;;;;;;;11.95;2.50;;;;;;;;;;4990920;28;100403;-74
2022/06/10 07:11:35;;;;;;;13.85;2.30;;;;;;;;;;4989871;28;98661;-74
2022/06/10 07:14:09;;;;;;;13.57;2.95;;;;;;;;;;4994155;28;99972;-73
2022/06/10 07:16:39;;;;;;;9.68;2.70;;;;;;;;;;4991244;28;97841;-74
2022/06/10 07:19:06;;;;;;;13.10;3.03;;;;;;;;;;4990524;28;99122;-75
2022/06/10 07:21:33;;;;;;;9.88;3.67;;;;;;;;;;4990335;28;100422;-74
2022/06/10 07:23:59;;;;;;;10.27;3.95;;;;;;;;;;4990403;28;99231;-74
2022/06/10 07:26:25;;;;;;;14.35;3.97;;;;;;;;;;4991144;28;100950;-75
2022/06/10 07:28:52;;;;;;;9.50;2.63;;;;;;;;;;5010314;28;100361;-75
2022/06/10 07:31:19;;;;;;;13.65;3.50;;;;;;;;;;5002402;28;98545;-76
2022/06/10 07:33:46;;;;;;;13.50;2.97;;;;;;;;;;4989965;28;99905;-76
2022/06/10 07:36:13;;;;;;;15.25;3.63;;;;;;;;;;4993700;28;100308;-76
2022/06/10 07:38:39;;;;;;;14.30;3.38;;;;;;;;;;4990579;28;100536;-76
2022/06/10 07:43:52;;;;;;;9.68;3.40;;;;;;;;;;4990691;28;98589;-76
2022/06/10 07:46:19;;;;;;;10.77;3.45;;;;;;;;;;4990693;28;99956;-76
2022/06/10 07:48:46;;;;;;;10.32;3.58;;;;;;;;;;4991095;28;101230;-75
2022/06/10 07:51:13;;;;;;;9.73;3.15;;;;;;;;;;5010319;28;98496;-76
2022/06/10 07:53:41;;;;;;;10.45;3.92;;;;;;;;;;4999103;28;100115;-76
2022/06/10 07:56:08;;;;;;;8.82;3.63;;;;;;;;;;4990205;28;100211;-75
2022/06/10 07:58:36;;;;;;;11.45;3.30;;;;;;;;;;5009175;28;98543;-75
2022/06/10 08:01:02;;;;;;;8.02;3.20;;;;;;;;;;5004349;28;100328;-75
2022/06/10 08:03:29;;;;;;;13.77;4.18;;;;;;;;;;5001982;28;98475;-75
2022/06/10 08:05:56;;;;;;;12.57;3.75;;;;;;;;;;5010191;28;99952;-76
2022/06/10 08:08:24;;;;;;;9.30;3.08;;;;;;;;;;4990183;28;100351;-76
2022/06/10 08:10:51;;;;;;;20.75;4.25;;;;;;;;;;4990169;28;98528;-75
2022/06/10 08:13:17;;;;;;;12.05;3.55;;;;;;;;;;4989889;28;100217;-75
2022/06/10 08:15:44;;;;;;;10.48;3.38;;;;;;;;;;4988904;28;99412;-77
2022/06/10 08:18:12;;;;;;;11.02;3.63;;;;;;;;;;4993846;28;98911;-75
2022/06/10 08:23:27;;;;;;;13.52;4.10;;;;;;;;;;5009732;28;98479;-76
2022/06/10 08:25:55;;;;;;;9.27;3.38;;;;;;;;;;5009948;28;100372;-75
2022/06/10 08:28:22;;;;;;;6.53;2.90;;;;;;;;;;5009923;28;100147;-76
2022/06/10 08:30:48;;;;;;;9.93;2.92;;;;;;;;;;5009690;28;97859;-76
2022/06/10 08:33:15;;;;;;;9.65;3.40;;;;;;;;;;5010099;28;99113;-76
2022/06/10 08:35:41;;;;;;;22.30;4.35;;;;;;;;;;5008736;28;100668;-76
2022/06/10 08:38:11;;;;;;;10.57;3.05;;;;;;;;;;5006444;28;101908;-76
2022/06/10 08:40:50;;;;;;;8.20;3.05;;;;;;;;;;4991956;28;100764;-75
2022/06/10 08:43:32;;;;;;;12.07;3.45;;;;;;;;;;4988551;28;98566;-76
2022/06/10 08:45:59;;;;;;;;;;;;;;;;;;4990539;28;99768;-76
2022/06/10 08:48:33;;;;;;;13.25;3.22;;;;;;;;;;4990191;28;128035;-77
2022/06/10 08:51:10;;;;;;;11.27;3.40;;;;;;;;;;4989293;28;99105;-76
2022/06/10 08:53:44;;;;;;;10.30;3.33;;;;;;;;;;4989251;28;99912;-76
2022/06/10 08:56:17;;;;;;;12.13;3.38;;;;;;;;;;5001522;28;99643;-76
2022/06/10 08:58:49;;;;;;;7.35;3.20;;;;;;;;;;5008537;28;98938;-77
2022/06/10 09:01:19;;;;;;;10.30;3.22;;;;;;;;;;4999211;28;99737;-77
2022/06/10 09:03:51;;;;;;;7.05;3.00;;;;;;;;;;4990860;28;101069;-77
2022/06/10 09:06:21;;;;;;;10.13;3.00;;;;;;;;;;4989284;28;100740;-77
2022/06/10 09:08:50;;;;;;;12.18;3.28;;;;;;;;;;4988915;28;100221;-76
2022/06/10 09:11:24;;;;;;;8.27;2.80;;;;;;;;;;4988676;28;99406;-76
2022/06/10 09:14:01;;;;;;;8.15;2.88;;;;;;;;;;4989399;28;99913;-77
2022/06/10 09:16:30;;;;;;;12.98;3.00;;;;;;;;;;4988864;28;99872;-76
2022/06/10 09:19:02;;;;;;;8.25;3.17;;;;;;;;;;4989521;28;99525;-76
2022/06/10 09:21:48;;;;;;;8.75;2.88;;;;;;;;;;4989968;28;99862;-77
2022/06/10 09:24:21;;;;;;;11.65;3.42;;;;;;;;;;4989437;28;100328;-76
2022/06/10 09:26:56;;;;;;;10.63;3.15;;;;;;;;;;4991815;28;98527;-76
2022/06/10 09:29:23;;;;;;;12.43;2.97;;;;;;;;;;4988479;28;101331;-76
2022/06/10 09:32:04;;;;;;;7.88;2.90;;;;;;;;;;4989303;28;98538;-77
2022/06/10 09:34:55;;;;;;;13.35;4.03;;;;;;;;;;4988285;28;99386;-77
2022/06/10 09:37:44;;;;;;;13.18;3.10;;;;;;;;;;4988812;28;99999;-76
2022/06/10 09:43:12;;;;;;;11.57;3.73;;;;;;;;;;4989139;28;99860;-77
2022/06/10 09:45:54;;;;;;;9.02;3.33;;;;;;;;;;4988883;28;100281;-77
2022/06/10 09:48:22;;;;;;;;;;;;;;;;;;4990432;28;97841;-77
2022/06/10 09:51:00;;;;;;;13.32;3.08;;;;;;;;;;4992373;28;129241;-76
2022/06/10 09:53:36;;;;;;;8.50;2.80;;;;;;;;;;4988930;28;98886;-76
2022/06/10 09:56:04;;;;;;;9.93;3.00;;;;;;;;;;4989033;28;99961;-76
2022/06/10 09:58:35;;;;;;;10.00;3.30;;;;;;;;;;4995346;28;100276;-77
2022/06/10 10:01:25;;;;;;;10.02;3.10;;;;;;;;;;5008132;28;99526;-77
2022/06/10 10:03:52;;;;;;;9.68;3.42;;;;;;;;;;5004589;28;100985;-77
2022/06/10 10:06:29;;;;;;;8.60;3.17;;;;;;;;;;5011638;28;100750;-77
2022/06/10 10:09:07;;;;;;;13.30;3.05;;;;;;;;;;5011175;28;99345;-77
2022/06/10 10:11:36;;;;;;;15.02;3.33;;;;;;;;;;5011734;28;100723;-77
2022/06/10 10:14:22;;;;;;;11.68;3.22;;;;;;;;;;5015189;28;99583;-77
2022/06/10 10:16:54;;;;;;;8.20;2.95;;;;;;;;;;5011780;28;98566;-77
2022/06/10 10:19:38;;;;;;;7.60;2.75;;;;;;;;;;5011702;28;99231;-77
2022/06/10 10:22:25;;;;;;;12.25;2.90;;;;;;;;;;5010841;28;99396;-77
2022/06/10 10:24:51;;;;;;;10.85;3.03;;;;;;;;;;5003392;28;101473;-77
2022/06/10 10:27:22;;;;;;;16.40;2.70;;;;;;;;;;5011262;28;100838;-76
2022/06/10 10:29:51;;;;;;;9.80;3.22;;;;;;;;;;5005848;28;98542;-74
2022/06/10 10:32:24;;;;;;;10.98;3.15;;;;;;;;;;4993762;28;99119;-74
2022/06/10 10:34:53;;;;;;;9.45;3.42;;;;;;;;;;4999215;28;100205;-74
2022/06/10 10:37:31;;;;;;;6.45;2.97;;;;;;;;;;4996440;28;99872;-75
2022/06/10 10:40:13;;;;;;;7.63;3.03;;;;;;;;;;5005227;28;99077;-74
2022/06/10 10:42:41;;;;;;;6.63;3.00;;;;;;;;;;4990634;28;98670;-74
2022/06/10 10:45:08;;;;;;;10.63;3.10;;;;;;;;;;4991413;28;100257;-74
2022/06/10 10:47:35;;;;;;;8.73;2.85;;;;;;;;;;4993200;28;101081;-73
2022/06/10 10:50:03;;;;;;;8.35;3.35;;;;;;;;;;4990794;28;99633;-73
2022/06/10 10:52:40;;;;;;;10.70;3.75;;;;;;;;;;4991235;28;99097;-71
2022/06/10 10:55:20;;;;;;;8.35;3.08;;;;;;;;;;4990427;28;99670;-79
2022/06/10 10:58:08;;;;;;;8.40;3.25;;;;;;;;;;4995389;28;99028;-80
2022/06/10 11:00:37;;;;;;;13.18;3.83;;;;;;;;;;4990235;28;101464;-80
2022/06/10 11:03:04;;;;;;;12.30;4.28;;;;;;;;;;5000366;28;98649;-79
2022/06/10 11:05:35;;;;;;;10.60;3.45;;;;;;;;;;4996776;28;99308;-79
2022/06/10 11:08:11;;;;;;;9.95;3.45;;;;;;;;;;4991744;28;100141;-78
2022/06/10 11:10:57;;;;;;;9.25;3.28;;;;;;;;;;4989969;28;98741;-77
2022/06/10 11:13:30;;;;;;;14.13;3.42;;;;;;;;;;4991005;28;100184;-78
2022/06/10 11:16:15;;;;;;;11.07;3.42;;;;;;;;;;4991011;28;99686;-77
2022/06/10 11:18:43;;;;;;;5.78;2.20;;;;;;;;;;4990672;28;98825;-78
2022/06/10 11:21:09;;;;;;;4.45;2.22;;;;;;;;;;4994403;28;100258;-78
2022/06/10 11:23:35;;;;;;;3.45;1.88;;;;;;;;;;4993588;28;98590;-77
2022/06/10 11:26:09;;;;;;;9.38;2.03;;;;;;;;;;4989703;28;99406;-77
2022/06/10 11:28:37;;;;;;;4.50;1.60;;;;;;;;;;4999600;28;100800;-77
2022/06/10 11:31:16;;;;;;;5.05;1.83;;;;;;;;;;5004689;28;97970;-78
2022/06/10 11:33:45;;;;;;;3.92;1.95;;;;;;;;;;5001185;28;99125;-77
2022/06/10 11:36:13;;;;;;;4.95;2.40;;;;;;;;;;4997434;28;99604;-76
2022/06/10 11:38:54;;;;;;;5.18;2.53;;;;;;;;;;4989509;28;99364;-76
2022/06/10 11:41:25;;;;;;;5.70;2.13;;;;;;;;;;4990981;28;100655;-76
2022/06/10 11:44:01;;;;;;;10.43;3.08;;;;;;;;;;4994955;28;101068;-77
2022/06/10 11:46:30;;;;;;;3.47;1.95;;;;;;;;;;4991752;28;101134;-75
2022/06/10 11:49:20;;;;;;;6.75;1.85;;;;;;;;;;4998946;28;101375;-76
2022/06/10 11:51:53;;;;;;;8.63;1.85;;;;;;;;;;4989986;28;98869;-75
2022/06/10 11:54:19;;;;;;;;;;;;;;;;;;4990744;28;99190;-76
2022/06/10 12:00:03;;;;;;;3.53;1.73;;;;;;;;;;4989750;28;99064;-76
2022/06/10 12:02:39;;;;;;;5.97;2.17;;;;;;;;;;4980081;28;98692;-75
2022/06/10 12:05:13;;;;;;;7.20;1.80;;;;;;;;;;4989703;28;100065;-75
2022/06/10 12:07:43;;;;;;;6.72;1.92;;;;;;;;;;4992771;28;98535;-76
2022/06/10 12:10:14;;;;;;;4.55;1.90;;;;;;;;;;4990087;28;99550;-76
2022/06/10 12:12:45;;;;;;;6.97;2.03;;;;;;;;;;4990855;28;98573;-75
2022/06/10 12:15:17;;;;;;;4.00;1.88;;;;;;;;;;4989736;28;100309;-75
2022/06/10 12:17:47;;;;;;;15.43;2.90;;;;;;;;;;4989620;28;99470;-75
2022/06/10 12:20:18;;;;;;;9.90;2.10;;;;;;;;;;4990292;28;98552;-75
2022/06/10 12:22:44;;;;;;;8.90;2.35;;;;;;;;;;4989733;28;99934;-76
2022/06/10 12:25:31;;;;;;;7.03;2.38;;;;;;;;;;4989768;28;100197;-76
2022/06/10 12:28:08;;;;;;;8.00;2.38;;;;;;;;;;4988950;28;99052;-76
2022/06/10 12:30:40;;;;;;;6.10;2.00;;;;;;;;;;4992178;28;100126;-76
2022/06/10 12:33:15;;;;;;;4.80;2.33;;;;;;;;;;4989895;28;99011;-75
2022/06/10 12:35:43;;;;;;;5.93;2.65;;;;;;;;;;4989046;28;100279;-76
2022/06/10 12:38:14;;;;;;;5.78;2.22;;;;;;;;;;4989555;28;100246;-75
2022/06/10 12:40:46;;;;;;;7.22;2.58;;;;;;;;;;4988802;28;98904;-75
2022/06/10 12:43:19;;;;;;;8.43;2.47;;;;;;;;;;4987331;28;99307;-76
2022/06/10 12:45:50;;;;;;;6.20;2.10;;;;;;;;;;4989066;28;100296;-75
2022/06/10 12:48:19;;;;;;;9.00;2.13;;;;;;;;;;4990058;28;97756;-75
2022/06/10 12:50:57;;;;;;;7.30;2.65;;;;;;;;;;4991020;28;98983;-76
2022/06/10 12:53:30;;;;;;;6.40;2.25;;;;;;;;;;4989111;28;98848;-76
2022/06/10 12:55:59;;;;;;;3.53;2.10;;;;;;;;;;4988232;28;99740;-75
2022/06/10 12:58:38;;;;;;;5.25;2.38;;;;;;;;;;4989544;28;99438;-76
2022/06/10 13:01:14;;;;;;;3.75;2.35;;;;;;;;;;4989637;28;98512;-76
2022/06/10 13:03:43;;;;;;;4.80;2.85;;;;;;;;;;4988550;28;99962;-75
2022/06/10 13:06:39;;;;;;;5.28;2.40;;;;;;;;;;4989180;28;99821;-75
2022/06/10 13:09:09;;;;;;;5.93;2.50;;;;;;;;;;4975968;28;98546;-76
2022/06/10 13:11:41;;;;;;;5.07;2.55;;;;;;;;;;4988532;28;99182;-76
2022/06/10 13:14:16;;;;;;;5.00;2.17;;;;;;;;;;4993024;28;98922;-76
2022/06/10 13:16:46;;;;;;;5.78;2.47;;;;;;;;;;4989121;28;99326;-76
2022/06/10 13:19:33;;;;;;;4.78;2.22;;;;;;;;;;4988359;28;100325;-76
2022/06/10 13:22:18;;;;;;;7.07;2.60;;;;;;;;;;4989146;28;99296;-76
2022/06/10 13:24:53;;;;;;;8.15;2.35;;;;;;;;;;4988173;28;99700;-76
2022/06/10 13:27:24;;;;;;;3.92;1.88;;;;;;;;;;4988750;28;100466;-76
2022/06/10 13:29:52;;;;;;;5.95;2.63;;;;;;;;;;4989145;28;98889;-76
2022/06/10 13:32:19;;;;;;;9.00;2.25;;;;;;;;;;4988371;28;99887;-76
2022/06/10 13:34:53;;;;;;;4.53;2.10;;;;;;;;;;4989280;28;100025;-76
2022/06/10 13:37:21;;;;;;;5.60;2.15;;;;;;;;;;5004548;28;98990;-76
2022/06/10 13:39:48;;;;;;;5.88;2.35;;;;;;;;;;5011556;28;98599;-76
2022/06/10 13:42:19;;;;;;;4.20;2.08;;;;;;;;;;5011858;28;98616;-76
2022/06/10 13:44:48;;;;;;;4.70;2.30;;;;;;;;;;5012069;28;99154;-76
2022/06/10 13:47:19;;;;;;;8.18;2.50;;;;;;;;;;5010602;28;100874;-76
2022/06/10 13:52:59;;;;;;;6.47;2.30;;;;;;;;;;5011442;28;99903;-76
2022/06/10 13:55:28;;;;;;;5.22;2.13;;;;;;;;;;5011762;28;99758;-76
2022/06/10 13:58:01;;;;;;;6.82;2.50;;;;;;;;;;5011828;28;98692;-76
2022/06/10 14:00:29;;;;;;;6.10;2.35;;;;;;;;;;5007474;28;99990;-76
2022/06/10 14:02:57;;;;;;;8.00;2.90;;;;;;;;;;5012042;28;98887;-76
2022/06/10 14:05:27;;;;;;;4.55;2.55;;;;;;;;;;5012544;28;100177;-75
2022/06/10 14:07:55;;;;;;;8.50;2.28;;;;;;;;;;5010806;28;100336;-75
2022/06/10 14:10:23;;;;;;;5.63;2.38;;;;;;;;;;5011964;28;98521;-76
2022/06/10 14:13:03;;;;;;;10.13;2.47;;;;;;;;;;5011299;28;99870;-75
2022/06/10 14:15:37;;;;;;;4.57;2.13;;;;;;;;;;5010999;28;99454;-75
2022/06/10 14:18:13;;;;;;;6.47;2.58;;;;;;;;;;5012011;28;98541;-76
2022/06/10 14:20:39;;;;;;;5.30;2.45;;;;;;;;;;5010892;28;100120;-75
2022/06/10 14:23:19;;;;;;;5.47;2.33;;;;;;;;;;5014795;28;100185;-76
2022/06/10 14:25:58;;;;;;;5.82;2.60;;;;;;;;;;5012164;28;99621;-76
2022/06/10 14:28:25;;;;;;;5.85;2.83;;;;;;;;;;5010698;28;99408;-77
2022/06/10 14:30:55;;;;;;;5.22;2.33;;;;;;;;;;5012508;28;97814;-77
2022/06/10 14:33:22;;;;;;;5.88;2.80;;;;;;;;;;5009209;28;98896;-77
2022/06/10 14:35:49;;;;;;;8.18;2.83;;;;;;;;;;5010620;28;100201;-76
2022/06/10 14:38:19;;;;;;;7.07;2.78;;;;;;;;;;5011512;28;99362;-76
2022/06/10 14:40:56;;;;;;;5.35;2.60;;;;;;;;;;4997540;28;101539;-77
2022/06/10 14:43:25;;;;;;;8.63;2.20;;;;;;;;;;5008410;28;100267;-76
2022/06/10 14:46:04;;;;;;;6.78;2.35;;;;;;;;;;5009899;28;98480;-76
2022/06/10 14:48:38;;;;;;;5.43;2.38;;;;;;;;;;4990300;28;100082;-76
2022/06/10 14:51:16;;;;;;;7.18;2.65;;;;;;;;;;4990243;28;98708;-75
2022/06/10 14:53:45;;;;;;;7.90;3.20;;;;;;;;;;4991354;28;99939;-75
2022/06/10 14:56:16;;;;;;;6.38;2.90;;;;;;;;;;4990822;28;99594;-75
2022/06/10 14:58:43;;;;;;;10.45;3.22;;;;;;;;;;4991454;28;99130;-75
2022/06/10 15:01:20;;;;;;;12.32;2.80;;;;;;;;;;4991317;28;100271;-76
2022/06/10 15:03:47;;;;;;;5.65;2.58;;;;;;;;;;4989393;28;101038;-76
2022/06/10 15:06:36;;;;;;;5.53;2.42;;;;;;;;;;4994467;28;98571;-76
2022/06/10 15:09:05;;;;;;;5.63;2.72;;;;;;;;;;4990326;28;100231;-76
2022/06/10 15:11:32;;;;;;;6.20;2.72;;;;;;;;;;5001044;28;99176;-76